Time;durP1;ratioP1;P1;durP2;ratioP2;P2;SDS_P1;SDS_P2;PMS_P1;PMS_P2;Temp;Humidity;BMP_temperature;BMP_pressure;BME280_temperature;BME280_humidity;BME280_pressure;Samples;Min_cycle;Max_cycle;Signal;HPM_P1;HPM_P2
2021/06/30 00:02:17;;;;;;;4.43;2.70;;;15.00;99.90;;;;;;4995792;28;20443;-77
2021/06/30 00:04:43;;;;;;;4.80;2.60;;;15.10;99.90;;;;;;4993360;28;20544;-76
2021/06/30 00:07:09;;;;;;;4.33;3.07;;;15.10;99.90;;;;;;4995112;28;20186;-75
2021/06/30 00:09:35;;;;;;;5.23;2.83;;;14.90;99.90;;;;;;4995229;28;20175;-76
2021/06/30 00:12:01;;;;;;;14.63;7.10;;;14.90;99.90;;;;;;4994870;28;20557;-75
2021/06/30 00:14:28;;;;;;;5.07;2.77;;;15.00;99.90;;;;;;4993707;28;20454;-75
2021/06/30 00:16:54;;;;;;;4.50;2.40;;;15.00;99.90;;;;;;4994350;28;20450;-76
2021/06/30 00:19:20;;;;;;;5.33;3.77;;;14.90;99.90;;;;;;4993422;28;20516;-76
2021/06/30 00:21:46;;;;;;;4.80;4.00;;;14.90;99.90;;;;;;4994071;28;20419;-77
2021/06/30 00:24:12;;;;;;;5.40;3.20;;;14.80;99.90;;;;;;4993888;28;20581;-76
2021/06/30 00:26:38;;;;;;;5.80;3.93;;;14.80;99.90;;;;;;4994305;28;20206;-77
2021/06/30 00:29:05;;;;;;;4.90;3.40;;;14.90;99.90;;;;;;4993998;28;20183;-75
2021/06/30 00:31:31;;;;;;;14.27;5.30;;;15.00;99.90;;;;;;4993822;28;20949;-76
2021/06/30 00:34:01;;;;;;;6.53;3.97;;;15.00;99.90;;;;;;4993271;28;20401;-76
2021/06/30 00:36:28;;;;;;;9.43;4.03;;;14.80;99.90;;;;;;4993928;28;20198;-77
2021/06/30 00:38:53;;;;;;;3.93;3.53;;;14.90;99.90;;;;;;4993626;28;20473;-76
2021/06/30 00:41:20;;;;;;;5.97;3.80;;;14.90;99.90;;;;;;4993863;28;20797;-77
2021/06/30 00:43:46;;;;;;;6.47;3.80;;;14.80;99.90;;;;;;4993315;28;20226;-76
2021/06/30 00:46:11;;;;;;;4.97;3.20;;;14.70;99.90;;;;;;4992439;28;20393;-77
2021/06/30 00:48:39;;;;;;;9.87;4.00;;;14.70;99.90;;;;;;4993461;28;20180;-75
2021/06/30 00:51:05;;;;;;;9.83;3.70;;;14.60;99.90;;;;;;4993391;28;20258;-75
2021/06/30 00:53:30;;;;;;;8.40;3.70;;;14.50;99.90;;;;;;4992984;28;20561;-76
2021/06/30 00:55:56;;;;;;;5.67;3.90;;;14.50;99.90;;;;;;4992206;28;20222;-75
2021/06/30 00:58:22;;;;;;;7.00;3.90;;;14.60;99.90;;;;;;4993386;28;20204;-75
2021/06/30 01:00:50;;;;;;;6.80;4.13;;;14.50;99.90;;;;;;4992086;28;20529;-77
2021/06/30 01:03:16;;;;;;;4.50;4.10;;;14.50;99.90;;;;;;4992721;28;20179;-76
2021/06/30 01:05:42;;;;;;;7.10;4.67;;;14.50;99.90;;;;;;4993203;28;20765;-75
2021/06/30 01:08:07;;;;;;;8.23;4.43;;;14.50;99.90;;;;;;4991930;28;20214;-76
2021/06/30 01:10:33;;;;;;;6.00;4.20;;;14.40;99.90;;;;;;4993157;28;20194;-77
2021/06/30 01:12:59;;;;;;;7.57;4.15;;;14.40;99.90;;;;;;4954988;28;1062969;-78
2021/06/30 01:15:24;;;;;;;9.93;5.07;;;14.40;99.90;;;;;;4993630;28;20203;-76
2021/06/30 01:17:53;;;;;;;7.77;4.20;;;14.40;99.90;;;;;;4994149;28;20639;-75
2021/06/30 01:20:19;;;;;;;5.37;3.77;;;14.40;99.90;;;;;;4994076;28;20214;-77
2021/06/30 01:23:02;;;;;;;3.97;3.60;;;14.30;99.90;;;;;;4993595;28;20399;-76
2021/06/30 01:25:28;;;;;;;5.53;3.80;;;14.30;99.90;;;;;;4994030;28;20855;-77
2021/06/30 01:27:53;;;;;;;5.47;3.60;;;14.30;99.90;;;;;;4993840;28;20429;-76
2021/06/30 01:30:19;;;;;;;4.43;3.90;;;14.30;99.90;;;;;;4978219;28;20187;-76
2021/06/30 01:32:45;;;;;;;6.17;3.97;;;14.30;99.90;;;;;;4997564;28;20739;-77
2021/06/30 01:35:20;;;;;;;3.80;3.50;;;14.30;99.90;;;;;;4996353;28;20449;-77
2021/06/30 01:37:46;;;;;;;4.30;3.90;;;14.30;99.90;;;;;;4997538;28;20166;-75
2021/06/30 01:40:13;;;;;;;4.00;3.40;;;14.20;99.90;;;;;;4996446;28;20934;-77
2021/06/30 01:42:38;;;;;;;4.63;3.10;;;14.20;99.90;;;;;;4997783;28;20442;-77
2021/06/30 01:45:04;;;;;;;5.57;3.10;;;14.20;99.90;;;;;;4997424;28;20911;-77
2021/06/30 01:47:30;;;;;;;4.50;4.07;;;14.10;99.90;;;;;;4997499;28;20175;-75
2021/06/30 01:49:55;;;;;;;6.33;4.53;;;14.20;99.90;;;;;;4997555;28;20509;-74
2021/06/30 01:52:21;;;;;;;3.73;3.33;;;14.20;99.90;;;;;;4997492;28;20242;-76
2021/06/30 01:54:47;;;;;;;8.70;3.70;;;14.10;99.90;;;;;;4997199;28;20282;-75
2021/06/30 01:57:12;;;;;;;3.77;3.30;;;14.10;99.90;;;;;;4997414;28;20410;-74
2021/06/30 01:59:38;;;;;;;4.57;3.87;;;14.10;99.90;;;;;;4997358;28;20180;-76
2021/06/30 02:02:04;;;;;;;4.67;3.90;;;14.00;99.90;;;;;;4998039;28;20218;-77
2021/06/30 02:04:30;;;;;;;7.67;4.07;;;14.00;99.90;;;;;;4997254;28;20200;-76
2021/06/30 02:06:56;;;;;;;4.07;3.37;;;14.10;99.90;;;;;;4997176;28;20474;-75
2021/06/30 02:09:21;;;;;;;6.80;3.87;;;14.10;99.90;;;;;;4997149;28;20270;-76
2021/06/30 02:11:47;;;;;;;3.50;3.20;;;14.10;99.90;;;;;;4996903;28;20207;-76
2021/06/30 02:14:12;;;;;;;4.13;3.63;;;14.10;99.90;;;;;;4996612;28;20219;-74
2021/06/30 02:16:38;;;;;;;6.20;4.30;;;14.10;99.90;;;;;;4997021;28;20175;-76
2021/06/30 02:19:06;;;;;;;5.50;4.13;;;14.10;99.90;;;;;;4996091;28;20558;-76
2021/06/30 02:21:34;;;;;;;4.70;3.83;;;14.00;99.90;;;;;;4996975;28;20258;-76
2021/06/30 02:24:00;;;;;;;9.00;4.57;;;14.10;99.90;;;;;;4996623;28;20405;-76
2021/06/30 02:26:28;;;;;;;5.40;4.17;;;14.10;99.90;;;;;;4996815;28;20533;-77
2021/06/30 02:28:54;;;;;;;5.30;4.23;;;14.00;99.90;;;;;;4996952;28;20401;-75
2021/06/30 02:31:19;;;;;;;5.50;3.67;;;14.00;99.90;;;;;;4997033;28;20498;-76
2021/06/30 02:33:45;;;;;;;6.57;4.07;;;14.00;99.90;;;;;;4996242;28;20592;-78
2021/06/30 02:36:11;;;;;;;6.13;5.20;;;14.00;99.90;;;;;;4996827;28;20171;-75
2021/06/30 02:38:37;;;;;;;7.87;4.60;;;14.00;99.90;;;;;;4995296;28;20434;-77
2021/06/30 02:41:03;;;;;;;6.60;4.90;;;14.00;99.90;;;;;;4996267;28;20558;-76
2021/06/30 02:43:28;;;;;;;5.30;4.80;;;14.10;99.90;;;;;;4995162;28;20187;-76
2021/06/30 02:45:54;;;;;;;8.60;4.30;;;14.00;99.90;;;;;;4996446;28;20557;-76
2021/06/30 02:48:20;;;;;;;5.97;4.60;;;14.00;99.90;;;;;;4978976;28;20287;-75
2021/06/30 02:50:46;;;;;;;7.60;5.00;;;14.10;99.90;;;;;;4996417;28;20184;-77
2021/06/30 02:53:12;;;;;;;6.00;4.10;;;14.10;99.90;;;;;;4995930;28;20462;-75
2021/06/30 02:55:37;;;;;;;5.93;4.27;;;14.10;99.90;;;;;;4996296;28;20207;-76
2021/06/30 02:58:03;;;;;;;7.00;4.53;;;14.10;99.90;;;;;;4995013;28;20266;-75
2021/06/30 03:00:28;;;;;;;6.80;4.47;;;14.10;99.90;;;;;;4996321;28;20687;-76
2021/06/30 03:02:54;;;;;;;13.33;5.20;;;14.00;99.90;;;;;;4995890;28;20552;-75
2021/06/30 03:05:20;;;;;;;6.70;4.23;;;14.10;99.90;;;;;;4994914;28;20273;-75
2021/06/30 03:07:50;;;;;;;5.50;4.73;;;14.10;99.90;;;;;;4996004;28;20183;-76
2021/06/30 03:10:16;;;;;;;8.03;4.90;;;14.00;99.90;;;;;;4995873;28;20434;-75
2021/06/30 03:12:42;;;;;;;8.90;5.10;;;14.00;99.90;;;;;;4995784;28;21601;-77
2021/06/30 03:15:09;;;;;;;9.57;5.17;;;14.10;99.90;;;;;;4995497;28;20459;-76
2021/06/30 03:17:35;;;;;;;6.60;5.47;;;14.10;99.90;;;;;;4995844;28;20219;-75
2021/06/30 03:20:03;;;;;;;8.07;4.73;;;14.10;99.90;;;;;;4995755;28;20792;-77
2021/06/30 03:22:28;;;;;;;11.93;5.97;;;14.10;99.90;;;;;;4995839;28;20584;-77
2021/06/30 03:24:54;;;;;;;8.40;5.57;;;14.20;99.90;;;;;;4994233;28;20529;-75
2021/06/30 03:27:20;;;;;;;7.37;5.10;;;14.20;99.90;;;;;;4995789;28;20180;-76
2021/06/30 03:29:46;;;;;;;8.60;5.30;;;14.20;99.90;;;;;;4995997;28;20180;-77
2021/06/30 03:32:11;;;;;;;7.43;5.30;;;14.30;99.90;;;;;;4995512;28;20242;-76
2021/06/30 03:34:37;;;;;;;8.40;5.63;;;14.30;99.90;;;;;;4977817;28;20210;-76
2021/06/30 03:37:03;;;;;;;10.43;5.63;;;14.30;99.90;;;;;;4995578;28;20183;-76
2021/06/30 03:39:29;;;;;;;9.07;5.00;;;14.40;99.90;;;;;;4995555;28;20180;-76
2021/06/30 03:41:54;;;;;;;7.57;5.40;;;14.40;99.90;;;;;;4994544;28;20469;-76
2021/06/30 03:44:20;;;;;;;7.07;4.70;;;14.40;99.90;;;;;;4994919;28;20615;-75
2021/06/30 03:46:46;;;;;;;6.63;4.97;;;14.50;99.90;;;;;;4995469;28;20266;-75
2021/06/30 03:49:11;;;;;;;7.73;5.47;;;14.50;99.90;;;;;;4994231;28;20645;-75
2021/06/30 03:51:37;;;;;;;9.20;6.23;;;14.50;99.90;;;;;;4995185;28;20183;-74
2021/06/30 03:54:05;;;;;;;5.10;4.10;;;14.50;99.90;;;;;;4994044;28;20207;-76
2021/06/30 03:56:31;;;;;;;6.07;4.50;;;14.50;99.90;;;;;;4995151;28;20171;-77
2021/06/30 03:58:58;;;;;;;9.27;4.57;;;14.50;99.90;;;;;;4995332;28;20415;-75
2021/06/30 04:01:24;;;;;;;10.70;4.97;;;14.60;99.90;;;;;;4995176;28;20176;-78
2021/06/30 04:03:54;;;;;;;5.17;4.67;;;14.50;99.90;;;;;;4993650;28;20429;-75
2021/06/30 04:06:20;;;;;;;6.67;4.80;;;14.60;99.90;;;;;;4995250;28;20179;-74
2021/06/30 04:08:46;;;;;;;5.07;4.57;;;14.60;99.90;;;;;;4995001;28;20455;-75
2021/06/30 04:11:11;;;;;;;6.23;4.47;;;14.60;99.90;;;;;;4994895;28;20473;-75
2021/06/30 04:13:37;;;;;;;7.27;4.90;;;14.80;99.90;;;;;;4994356;28;20230;-76
2021/06/30 04:16:03;;;;;;;5.10;4.53;;;14.80;99.90;;;;;;4994639;28;20187;-75
2021/06/30 04:18:29;;;;;;;10.33;5.83;;;14.80;99.90;;;;;;4994512;28;20599;-77
2021/06/30 04:20:54;;;;;;;7.27;5.90;;;14.80;99.90;;;;;;4994587;28;20176;-75
2021/06/30 04:23:20;;;;;;;10.83;5.27;;;14.80;99.90;;;;;;4994435;28;20423;-76
2021/06/30 04:25:48;;;;;;;8.77;5.20;;;14.80;99.90;;;;;;4994601;28;20253;-76
2021/06/30 04:28:15;;;;;;;7.30;5.70;;;14.80;99.90;;;;;;4994585;28;20211;-74
2021/06/30 04:30:41;;;;;;;12.33;5.50;;;14.80;99.90;;;;;;4994424;28;20469;-74
2021/06/30 04:33:07;;;;;;;9.73;6.17;;;14.90;99.90;;;;;;4993888;28;20466;-75
2021/06/30 04:35:34;;;;;;;8.03;5.33;;;14.90;99.90;;;;;;4994305;28;20492;-75
2021/06/30 04:38:04;;;;;;;6.63;5.47;;;14.90;99.90;;;;;;4994582;28;20210;-75
2021/06/30 04:40:29;;;;;;;10.13;4.87;;;15.00;99.90;;;;;;4994556;28;20425;-76
2021/06/30 04:42:55;;;;;;;8.53;5.90;;;14.90;99.90;;;;;;4993699;28;20432;-75
2021/06/30 04:45:21;;;;;;;7.23;5.80;;;15.00;99.90;;;;;;4994391;28;20203;-76
2021/06/30 04:47:46;;;;;;;10.53;5.50;;;15.10;99.90;;;;;;4993393;28;20553;-76
2021/06/30 04:50:13;;;;;;;6.30;4.93;;;15.10;99.90;;;;;;4994830;28;20203;-76
2021/06/30 04:52:39;;;;;;;8.63;5.23;;;15.10;99.90;;;;;;4994491;28;20211;-75
2021/06/30 04:55:06;;;;;;;13.00;6.03;;;15.10;99.90;;;;;;4993917;28;20442;-76
2021/06/30 04:57:32;;;;;;;9.63;5.67;;;15.20;99.90;;;;;;4996807;28;20940;-75
2021/06/30 04:59:57;;;;;;;7.13;5.13;;;15.30;99.90;;;;;;4992879;28;20423;-75
2021/06/30 05:02:23;;;;;;;7.87;5.20;;;15.20;99.90;;;;;;4992711;28;20467;-76
2021/06/30 05:04:48;;;;;;;8.00;5.00;;;15.30;99.90;;;;;;4993704;28;20207;-75
2021/06/30 05:07:14;;;;;;;6.97;4.73;;;15.20;99.90;;;;;;4994306;28;20179;-77
2021/06/30 05:09:40;;;;;;;5.67;4.47;;;15.40;99.90;;;;;;4994554;28;20183;-75
2021/06/30 05:12:06;;;;;;;7.40;5.30;;;15.40;99.90;;;;;;4993904;28;20234;-78
2021/06/30 05:14:31;;;;;;;5.47;4.97;;;15.50;99.90;;;;;;4992091;28;20655;-78
2021/06/30 05:16:57;;;;;;;11.13;4.67;;;15.70;99.90;;;;;;4993861;28;20469;-77
2021/06/30 05:19:23;;;;;;;5.90;3.70;;;15.70;99.90;;;;;;4993757;28;20175;-77
2021/06/30 05:21:48;;;;;;;12.30;5.30;;;15.70;99.90;;;;;;4993998;28;20184;-75
2021/06/30 05:24:14;;;;;;;10.67;5.40;;;15.70;99.90;;;;;;4993538;28;20278;-75
2021/06/30 05:26:40;;;;;;;10.77;5.27;;;15.70;99.90;;;;;;4992884;28;20787;-77
2021/06/30 05:29:05;;;;;;;9.23;5.27;;;15.80;99.90;;;;;;4993370;28;20640;-76
2021/06/30 05:31:31;;;;;;;9.20;4.50;;;15.90;99.90;;;;;;4993479;28;20187;-73
2021/06/30 05:33:57;;;;;;;8.00;4.57;;;15.90;99.90;;;;;;4993606;28;20231;-72
2021/06/30 05:36:22;;;;;;;5.53;4.23;;;15.90;99.90;;;;;;4993362;28;20176;-74
2021/06/30 05:38:48;;;;;;;7.73;4.23;;;15.90;99.90;;;;;;4993454;28;20423;-74
2021/06/30 05:41:14;;;;;;;5.90;4.30;;;15.90;99.90;;;;;;4992459;28;20179;-74
2021/06/30 05:43:40;;;;;;;10.87;4.00;;;15.90;99.90;;;;;;4991944;28;20253;-74
2021/06/30 05:46:06;;;;;;;7.23;4.17;;;16.00;99.90;;;;;;4993643;28;20450;-74
2021/06/30 05:48:32;;;;;;;5.83;3.77;;;16.10;99.90;;;;;;4993548;28;20175;-74
2021/06/30 05:50:58;;;;;;;7.20;3.63;;;16.00;99.90;;;;;;4993896;28;20168;-74
2021/06/30 05:53:24;;;;;;;8.70;4.20;;;16.00;99.90;;;;;;4992826;28;20472;-74
2021/06/30 05:55:50;;;;;;;7.17;4.13;;;16.00;99.90;;;;;;4993569;28;20969;-74
2021/06/30 05:58:15;;;;;;;6.23;4.83;;;16.00;99.90;;;;;;4993660;28;20407;-74
2021/06/30 06:00:42;;;;;;;9.90;6.00;;;15.90;99.90;;;;;;4993573;28;20176;-74
2021/06/30 06:03:08;;;;;;;8.03;4.27;;;15.90;99.90;;;;;;4993286;28;20242;-74
2021/06/30 06:05:34;;;;;;;17.60;5.30;;;15.70;99.90;;;;;;4993211;28;21012;-74
2021/06/30 06:08:00;;;;;;;8.43;4.87;;;15.70;99.90;;;;;;4993453;28;20415;-74
2021/06/30 06:10:25;;;;;;;9.37;4.80;;;15.60;99.90;;;;;;4993368;28;20175;-74
2021/06/30 06:12:51;;;;;;;7.60;4.80;;;15.60;99.90;;;;;;4992884;28;20230;-75
2021/06/30 06:15:17;;;;;;;12.30;5.20;;;15.70;99.90;;;;;;4993265;28;20199;-75
2021/06/30 06:17:42;;;;;;;8.53;4.90;;;15.80;99.90;;;;;;4996823;28;20323;-74
2021/06/30 06:20:09;;;;;;;18.20;5.40;;;15.80;99.90;;;;;;4995764;28;20202;-74
2021/06/30 06:22:35;;;;;;;6.70;4.93;;;15.70;99.90;;;;;;4996798;28;20233;-74
2021/06/30 06:25:03;;;;;;;11.30;6.30;;;15.80;99.90;;;;;;4995532;28;20823;-74
2021/06/30 06:27:28;;;;;;;10.60;5.50;;;15.80;99.90;;;;;;4996591;28;20191;-75
2021/06/30 06:29:54;;;;;;;8.47;5.07;;;15.80;99.90;;;;;;4996750;28;20411;-74
2021/06/30 06:32:20;;;;;;;5.57;3.77;;;15.90;99.90;;;;;;4996508;28;20226;-76
2021/06/30 06:34:46;;;;;;;8.93;3.90;;;15.90;99.90;;;;;;4996262;28;20207;-76
2021/06/30 06:37:14;;;;;;;4.30;2.33;;;16.00;99.90;;;;;;4996490;28;20230;-75
2021/06/30 06:39:40;;;;;;;2.20;1.67;;;15.90;99.90;;;;;;4996282;28;20770;-74
2021/06/30 06:42:07;;;;;;;1.40;1.30;;;15.80;99.90;;;;;;4996574;28;20498;-77
2021/06/30 06:44:37;;;;;;;1.77;0.97;;;15.80;99.90;;;;;;4996012;28;20442;-76
2021/06/30 06:47:03;;;;;;;4.00;1.20;;;15.80;99.90;;;;;;4996209;28;20405;-77
2021/06/30 06:49:29;;;;;;;2.80;1.20;;;15.90;99.90;;;;;;4996096;28;20401;-78
2021/06/30 06:51:55;;;;;;;2.10;1.03;;;15.90;99.90;;;;;;4995697;28;20421;-75
2021/06/30 06:54:21;;;;;;;2.70;1.00;;;15.90;99.90;;;;;;4995618;28;20203;-75
2021/06/30 06:56:46;;;;;;;0.80;0.80;;;15.90;99.90;;;;;;4995692;28;20238;-77
2021/06/30 06:59:12;;;;;;;4.50;1.40;;;15.90;99.90;;;;;;4995546;28;20187;-75
2021/06/30 07:01:38;;;;;;;0.93;0.83;;;15.90;99.90;;;;;;4996262;28;20259;-76
2021/06/30 07:04:04;;;;;;;1.30;0.90;;;15.90;99.90;;;;;;4994284;28;20485;-77
2021/06/30 07:06:29;;;;;;;1.40;1.10;;;15.90;99.90;;;;;;4995852;28;20225;-76
2021/06/30 07:08:55;;;;;;;1.20;1.10;;;15.90;99.90;;;;;;4995944;28;20183;-76
2021/06/30 07:11:21;;;;;;;2.13;1.13;;;15.70;99.90;;;;;;4995730;28;20183;-74
2021/06/30 07:13:47;;;;;;;3.50;1.00;;;15.80;99.90;;;;;;4995004;28;20214;-76
2021/06/30 07:16:13;;;;;;;1.27;1.00;;;15.80;99.90;;;;;;4995648;28;20530;-75
2021/06/30 07:18:39;;;;;;;0.83;0.80;;;16.00;99.90;;;;;;4995740;28;20415;-75
2021/06/30 07:21:06;;;;;;;0.97;0.90;;;16.20;99.90;;;;;;4995783;28;20426;-77
2021/06/30 07:23:32;;;;;;;3.23;1.07;;;16.30;99.90;;;;;;4995387;28;20454;-76
2021/06/30 07:25:58;;;;;;;1.63;0.80;;;16.30;99.90;;;;;;4995525;28;20405;-76
2021/06/30 07:28:25;;;;;;;1.37;0.93;;;16.30;99.90;;;;;;4994359;28;20780;-76
2021/06/30 07:30:51;;;;;;;1.40;0.83;;;16.30;99.90;;;;;;4995750;28;20821;-77
2021/06/30 07:33:16;;;;;;;1.73;0.90;;;16.30;99.90;;;;;;4995101;28;20469;-75
2021/06/30 07:35:42;;;;;;;1.83;0.90;;;16.30;99.90;;;;;;4994561;28;20927;-77
2021/06/30 07:38:08;;;;;;;2.17;0.97;;;16.30;99.90;;;;;;4995271;28;20605;-76
2021/06/30 07:40:34;;;;;;;0.80;0.80;;;16.20;99.90;;;;;;4995567;28;20179;-76
2021/06/30 07:43:00;;;;;;;0.80;0.80;;;16.00;99.90;;;;;;4995169;28;20262;-77
2021/06/30 07:45:27;;;;;;;1.43;0.80;;;15.80;99.90;;;;;;4995383;28;20417;-77
2021/06/30 07:47:52;;;;;;;1.70;1.00;;;15.80;99.90;;;;;;4995478;28;20426;-75
2021/06/30 07:50:18;;;;;;;2.30;1.10;;;15.90;99.90;;;;;;4995058;28;20514;-76
2021/06/30 07:52:47;;;;;;;1.67;0.87;;;15.90;99.90;;;;;;4993551;28;20246;-78
2021/06/30 07:55:13;;;;;;;1.10;0.90;;;16.00;99.90;;;;;;4995120;28;20861;-75
2021/06/30 07:57:39;;;;;;;0.67;0.63;;;16.40;99.90;;;;;;4995259;28;20514;-77
2021/06/30 08:00:06;;;;;;;2.93;0.90;;;16.60;99.90;;;;;;4995104;28;20175;-77
2021/06/30 08:02:33;;;;;;;1.47;1.00;;;16.70;99.90;;;;;;4994776;28;20501;-78
2021/06/30 08:04:59;;;;;;;1.07;0.97;;;16.60;99.90;;;;;;4993544;28;20442;-76
2021/06/30 08:07:25;;;;;;;1.30;1.10;;;16.40;99.90;;;;;;4994959;28;20864;-76
2021/06/30 08:09:51;;;;;;;1.30;1.20;;;16.30;99.90;;;;;;4993902;28;20415;-75
2021/06/30 08:12:16;;;;;;;1.00;0.90;;;16.30;99.90;;;;;;4994703;28;21048;-78
2021/06/30 08:14:42;;;;;;;1.20;1.10;;;16.20;99.90;;;;;;4994260;28;20214;-77
2021/06/30 08:17:08;;;;;;;0.93;0.90;;;16.20;99.90;;;;;;4994749;28;20226;-76
2021/06/30 08:19:34;;;;;;;1.20;1.10;;;16.30;99.90;;;;;;4994749;28;20183;-76
2021/06/30 08:22:00;;;;;;;2.03;1.00;;;16.30;99.90;;;;;;4994967;28;20250;-76
2021/06/30 08:24:26;;;;;;;2.63;1.07;;;16.30;99.90;;;;;;4992954;28;20676;-76
2021/06/30 08:26:52;;;;;;;1.73;1.20;;;16.50;99.90;;;;;;4994870;28;20393;-75
2021/06/30 08:29:20;;;;;;;1.83;1.00;;;16.60;99.90;;;;;;4995457;28;20193;-77
2021/06/30 08:31:46;;;;;;;3.20;0.97;;;16.90;99.90;;;;;;4995492;28;20478;-77
2021/06/30 08:34:11;;;;;;;4.57;1.30;;;17.00;99.90;;;;;;4994192;28;20446;-77
2021/06/30 08:36:37;;;;;;;0.90;0.60;;;17.00;99.90;;;;;;4994235;28;20183;-77
2021/06/30 08:39:04;;;;;;;0.97;0.87;;;17.20;99.90;;;;;;4993967;28;20183;-76
2021/06/30 08:41:30;;;;;;;2.67;1.33;;;17.10;99.90;;;;;;4994352;28;20175;-76
2021/06/30 08:43:57;;;;;;;3.63;1.03;;;16.90;99.90;;;;;;4994000;28;20581;-77
2021/06/30 08:46:23;;;;;;;1.23;0.80;;;16.80;99.90;;;;;;4994657;28;20443;-75
2021/06/30 08:48:55;;;;;;;1.20;0.83;;;16.70;99.90;;;;;;4994304;28;20481;-78
2021/06/30 08:51:23;;;;;;;1.30;1.00;;;16.80;99.90;;;;;;4994383;28;20415;-77
2021/06/30 08:53:50;;;;;;;1.53;0.80;;;16.70;99.90;;;;;;4993918;28;20466;-76
2021/06/30 08:56:19;;;;;;;2.60;1.13;;;16.70;99.90;;;;;;4994252;28;20442;-76
2021/06/30 08:58:46;;;;;;;1.73;0.90;;;16.90;99.90;;;;;;4994091;28;20494;-76
2021/06/30 09:01:12;;;;;;;1.50;1.40;;;16.90;99.90;;;;;;4994267;28;20781;-78
2021/06/30 09:03:44;;;;;;;1.10;0.90;;;16.80;99.90;;;;;;4992454;28;20421;-77
2021/06/30 09:06:13;;;;;;;0.70;0.70;;;17.00;99.90;;;;;;4994164;28;20188;-76
2021/06/30 09:08:44;;;;;;;0.70;0.60;;;17.40;99.90;;;;;;4993991;28;20397;-77
2021/06/30 09:11:11;;;;;;;1.00;0.90;;;17.50;99.90;;;;;;4993889;28;20465;-76
2021/06/30 09:13:37;;;;;;;0.80;0.60;;;17.60;99.90;;;;;;4993344;28;20480;-77
2021/06/30 09:16:03;;;;;;;1.00;0.70;;;17.70;99.90;;;;;;4993865;28;20753;-76
2021/06/30 09:18:36;;;;;;;1.00;0.80;;;18.10;99.90;;;;;;4992592;28;20424;-76
2021/06/30 09:21:23;;;;;;;3.50;1.03;;;18.10;99.90;;;;;;4993738;28;20439;-77
2021/06/30 09:24:05;;;;;;;2.60;0.80;;;18.10;99.90;;;;;;4993434;28;20438;-77
2021/06/30 09:26:48;;;;;;;1.07;0.80;;;17.90;99.90;;;;;;4992414;28;20845;-77
2021/06/30 09:29:13;;;;;;;1.07;0.87;;;17.50;99.90;;;;;;4993625;28;20410;-77
2021/06/30 09:31:45;;;;;;;2.47;1.10;;;17.60;99.90;;;;;;4993701;28;20393;-79
2021/06/30 09:34:11;;;;;;;1.47;1.30;;;17.80;99.90;;;;;;4993532;28;20599;-77
2021/06/30 09:36:44;;;;;;;1.33;1.23;;;18.10;99.90;;;;;;4993956;28;20476;-76
2021/06/30 09:39:11;;;;;;;1.07;0.97;;;18.70;99.90;;;;;;4993945;28;20382;-78
2021/06/30 09:41:44;;;;;;;1.50;1.40;;;18.70;99.90;;;;;;4993741;28;20436;-77
2021/06/30 09:44:12;;;;;;;1.30;1.20;;;18.50;99.90;;;;;;4993260;28;20409;-76
2021/06/30 09:46:40;;;;;;;1.20;1.10;;;18.30;99.90;;;;;;4993625;28;20440;-77
2021/06/30 09:49:08;;;;;;;1.97;1.27;;;17.90;99.90;;;;;;4993551;28;20410;-78
2021/06/30 09:51:35;;;;;;;1.60;1.17;;;18.00;99.90;;;;;;4995368;28;20458;-75
2021/06/30 09:54:06;;;;;;;1.97;1.40;;;18.10;99.90;;;;;;4996808;28;20448;-77
2021/06/30 09:56:38;;;;;;;1.30;1.20;;;18.30;99.90;;;;;;4997349;28;20409;-76
2021/06/30 09:59:31;;;;;;;2.80;1.23;;;18.30;99.90;;;;;;4997257;28;20385;-75
2021/06/30 10:02:08;;;;;;;1.67;1.23;;;18.50;99.90;;;;;;4997488;28;20762;-75
2021/06/30 10:04:55;;;;;;;2.30;1.63;;;18.40;99.90;;;;;;4996891;28;20492;-76
2021/06/30 10:07:30;;;;;;;4.13;1.50;;;18.10;99.90;;;;;;4996355;28;20473;-76
2021/06/30 10:09:55;;;;;;;1.80;1.27;;;18.00;99.90;;;;;;4995970;28;20974;-78
2021/06/30 10:12:23;;;;;;;1.40;1.13;;;18.10;99.90;;;;;;4997079;28;20456;-77
2021/06/30 10:14:50;;;;;;;2.20;1.00;;;18.30;99.90;;;;;;4995405;28;20748;-75
2021/06/30 10:17:16;;;;;;;1.30;1.20;;;18.30;99.90;;;;;;4996763;28;20446;-75
2021/06/30 10:19:43;;;;;;;4.10;1.07;;;18.20;99.90;;;;;;4996859;28;20417;-76
2021/06/30 10:22:11;;;;;;;0.70;0.70;;;18.20;99.90;;;;;;4996844;28;20202;-75
2021/06/30 10:24:37;;;;;;;1.20;1.03;;;18.20;99.90;;;;;;4996378;28;20430;-75
2021/06/30 10:27:05;;;;;;;1.43;0.80;;;18.50;99.90;;;;;;4996727;28;20973;-76
2021/06/30 10:29:33;;;;;;;1.10;1.00;;;18.80;99.90;;;;;;4996522;28;20418;-77
2021/06/30 10:32:03;;;;;;;1.10;1.00;;;18.50;99.90;;;;;;4996567;28;20418;-76
2021/06/30 10:34:34;;;;;;;2.07;1.27;;;18.70;99.90;;;;;;4996467;28;20509;-77
2021/06/30 10:36:59;;;;;;;1.57;0.90;;;18.50;99.90;;;;;;4997018;28;20385;-75
2021/06/30 10:39:39;;;;;;;0.70;0.60;;;19.10;99.90;;;;;;4996501;28;21004;-75
2021/06/30 10:42:28;;;;;;;4.63;1.00;;;19.40;99.90;;;;;;4996502;28;20591;-75
2021/06/30 10:44:56;;;;;;;1.37;0.80;;;19.70;99.90;;;;;;4996180;28;20851;-76
2021/06/30 10:47:51;;;;;;;5.03;1.20;;;19.50;99.90;;;;;;4996401;28;20402;-77
2021/06/30 10:50:19;;;;;;;1.23;1.13;;;19.00;99.90;;;;;;4996472;28;20409;-76
2021/06/30 10:52:47;;;;;;;0.90;0.77;;;19.20;99.90;;;;;;4996178;28;20940;-76
2021/06/30 10:55:37;;;;;;;1.87;0.90;;;19.10;99.90;;;;;;4996135;28;20431;-75
2021/06/30 10:58:12;;;;;;;1.00;0.80;;;18.70;99.90;;;;;;4996244;28;20414;-77
2021/06/30 11:01:03;;;;;;;1.23;1.13;;;18.30;99.90;;;;;;4996230;28;20518;-76
2021/06/30 11:03:38;;;;;;;0.97;0.87;;;18.40;99.90;;;;;;4995746;28;20437;-76
2021/06/30 11:06:06;;;;;;;1.40;1.20;;;18.50;99.90;;;;;;4996075;28;20484;-76
2021/06/30 11:08:51;;;;;;;2.40;0.93;;;18.70;99.90;;;;;;4996697;28;20461;-77
2021/06/30 11:11:26;;;;;;;2.07;1.10;;;19.00;99.90;;;;;;4996053;28;20396;-76
2021/06/30 11:14:12;;;;;;;1.70;1.00;;;18.90;99.90;;;;;;4995235;28;20444;-76
2021/06/30 11:16:44;;;;;;;1.20;1.10;;;19.00;99.90;;;;;;4996073;28;20484;-76
2021/06/30 11:19:19;;;;;;;4.20;1.00;;;18.80;99.90;;;;;;4996033;28;20378;-77
2021/06/30 11:22:11;;;;;;;1.30;1.20;;;18.60;99.90;;;;;;4994408;28;20524;-77
2021/06/30 11:27:32;;;;;;;1.40;1.30;;;18.10;99.90;;;;;;4995958;28;20411;-80
2021/06/30 11:30:05;;;;;;;1.50;1.40;;;18.80;99.90;;;;;;4995591;28;20386;-77
2021/06/30 11:32:36;;;;;;;1.70;1.60;;;19.70;99.90;;;;;;4995590;28;20459;-77
2021/06/30 11:35:26;;;;;;;2.63;2.10;;;20.00;99.90;;;;;;4994122;28;20993;-78
2021/06/30 11:38:00;;;;;;;2.03;1.93;;;19.80;99.90;;;;;;4995440;28;20409;-77
2021/06/30 11:43:18;;;;;;;4.00;2.23;;;19.40;99.90;;;;;;4995431;28;20495;-78
2021/06/30 11:45:44;;;;;;;2.53;2.33;;;19.60;99.90;;;;;;4995517;28;20822;-76
2021/06/30 11:48:13;;;;;;;2.60;2.40;;;19.60;99.90;;;;;;4995456;28;20833;-77
2021/06/30 11:50:52;;;;;;;2.83;2.60;;;19.60;99.90;;;;;;4995332;28;20418;-77
2021/06/30 11:53:50;;;;;;;5.23;2.50;;;19.40;99.90;;;;;;4995013;28;20461;-77
2021/06/30 11:56:34;;;;;;;2.17;2.07;;;20.40;99.90;;;;;;4993807;28;20405;-77
2021/06/30 11:59:03;;;;;;;2.13;2.03;;;21.00;99.90;;;;;;4995171;28;20894;-77
2021/06/30 12:01:31;;;;;;;2.10;2.00;;;20.70;99.90;;;;;;4994985;28;20410;-76
2021/06/30 12:04:22;;;;;;;2.60;1.87;;;20.20;99.90;;;;;;4994554;28;20449;-77
2021/06/30 12:06:53;;;;;;;2.63;2.43;;;20.00;99.90;;;;;;4995050;28;20418;-77
2021/06/30 12:09:29;;;;;;;1.93;1.80;;;19.50;99.90;;;;;;4995048;28;20411;-78
2021/06/30 12:11:57;;;;;;;1.90;1.70;;;19.10;99.90;;;;;;4994817;28;20805;-77
2021/06/30 12:14:24;;;;;;;1.50;1.40;;;19.00;99.90;;;;;;4993594;28;20456;-76
2021/06/30 12:16:53;;;;;;;1.80;1.70;;;18.70;99.90;;;;;;4994917;28;20883;-76
2021/06/30 12:19:30;;;;;;;1.80;1.70;;;18.50;99.90;;;;;;4994720;28;20418;-78
2021/06/30 12:21:56;;;;;;;2.90;1.83;;;18.10;99.90;;;;;;4994672;28;20420;-78
2021/06/30 12:24:23;;;;;;;2.47;2.27;;;18.10;99.90;;;;;;4994008;28;20442;-77
2021/06/30 12:27:00;;;;;;;1.83;1.67;;;17.80;99.90;;;;;;4994553;28;20422;-76
2021/06/30 12:29:26;;;;;;;2.40;1.70;;;17.80;99.90;;;;;;4994449;28;20803;-77
2021/06/30 12:31:52;;;;;;;2.40;2.20;;;17.90;99.90;;;;;;4994256;28;20390;-73
2021/06/30 12:34:18;;;;;;;2.00;1.90;;;17.90;99.90;;;;;;4993985;28;20477;-77
2021/06/30 12:36:44;;;;;;;2.97;2.13;;;18.10;99.90;;;;;;4994554;28;20427;-76
2021/06/30 12:39:36;;;;;;;1.90;1.80;;;18.10;99.90;;;;;;4996668;28;20396;-76
2021/06/30 12:42:07;;;;;;;1.97;1.87;;;18.10;99.90;;;;;;4994746;28;20203;-77
2021/06/30 12:44:58;;;;;;;2.57;2.37;;;18.50;99.90;;;;;;4993810;28;20875;-78
2021/06/30 12:47:25;;;;;;;2.47;2.27;;;18.60;99.90;;;;;;4993139;28;20381;-77
2021/06/30 12:50:05;;;;;;;2.37;2.17;;;18.40;99.90;;;;;;4994229;28;20400;-77
2021/06/30 12:52:31;;;;;;;2.57;2.37;;;18.60;99.90;;;;;;4993965;28;20588;-79
2021/06/30 12:54:58;;;;;;;4.50;2.10;;;18.70;99.90;;;;;;4993882;28;20438;-76
2021/06/30 12:57:23;;;;;;;2.50;1.67;;;18.60;99.90;;;;;;4994300;28;20402;-77